createdAt,value
2023-05-12T00:00:48.614Z,984.20
2023-05-12T00:01:48.606Z,984.20
2023-05-12T00:02:48.643Z,984.20
2023-05-12T00:03:48.758Z,984.19
2023-05-12T00:04:48.675Z,984.18
2023-05-12T00:05:48.557Z,984.18
2023-05-12T00:06:48.548Z,984.19
2023-05-12T00:07:48.519Z,984.19
2023-05-12T00:08:48.517Z,984.19
2023-05-12T00:09:48.488Z,984.20
2023-05-12T00:10:48.552Z,984.20
2023-05-12T00:11:48.524Z,984.19
2023-05-12T00:12:48.470Z,984.20
2023-05-12T00:13:48.518Z,984.21
2023-05-12T00:14:48.447Z,984.20
2023-05-12T00:15:48.447Z,984.19
2023-05-12T00:16:48.729Z,984.19
2023-05-12T00:17:48.442Z,984.19
2023-05-12T00:18:48.482Z,984.17
2023-05-12T00:19:48.392Z,984.17
2023-05-12T00:20:48.372Z,984.17
2023-05-12T00:21:48.370Z,984.18
2023-05-12T00:22:48.379Z,984.19
2023-05-12T00:23:48.365Z,984.20
2023-05-12T00:24:48.354Z,984.21
2023-05-12T00:25:48.337Z,984.20
2023-05-12T00:26:48.337Z,984.20
2023-05-12T00:27:48.378Z,984.19
2023-05-12T00:28:48.325Z,984.19
2023-05-12T00:29:48.291Z,984.20
2023-05-12T00:30:48.300Z,984.20
2023-05-12T00:31:48.306Z,984.21
2023-05-12T00:32:48.308Z,984.22
2023-05-12T00:33:48.284Z,984.22
2023-05-12T00:34:48.257Z,984.22
2023-05-12T00:35:48.223Z,984.22
2023-05-12T00:36:48.230Z,984.22
2023-05-12T00:37:48.203Z,984.21
2023-05-12T00:38:48.212Z,984.20
2023-05-12T00:39:48.241Z,984.18
2023-05-12T00:40:48.204Z,984.18
2023-05-12T00:41:48.201Z,984.18
2023-05-12T00:42:48.194Z,984.16
2023-05-12T00:43:48.169Z,984.15
2023-05-12T00:44:48.168Z,984.14
2023-05-12T00:45:48.214Z,984.14
2023-05-12T00:46:48.124Z,984.15
2023-05-12T00:47:48.167Z,984.13
2023-05-12T00:48:48.120Z,984.14
2023-05-12T00:49:48.097Z,984.12
2023-05-12T00:50:48.090Z,984.12
2023-05-12T00:51:48.095Z,984.10
2023-05-12T00:52:48.072Z,984.08
2023-05-12T00:53:50.019Z,984.09
2023-05-12T00:54:48.049Z,984.10
2023-05-12T00:55:48.044Z,984.08
2023-05-12T00:56:48.040Z,984.08
2023-05-12T00:57:48.025Z,984.07
2023-05-12T00:58:48.028Z,984.07
2023-05-12T00:59:47.994Z,984.06
2023-05-12T01:00:47.979Z,984.06
2023-05-12T01:01:47.984Z,984.06
2023-05-12T01:02:48.032Z,984.04
2023-05-12T01:03:47.981Z,984.05
2023-05-12T01:04:47.968Z,984.05
2023-05-12T01:05:47.948Z,984.05
2023-05-12T01:06:47.932Z,984.03
2023-05-12T01:07:47.936Z,984.05
2023-05-12T01:08:47.924Z,984.06
2023-05-12T01:09:47.905Z,984.05
2023-05-12T01:10:47.932Z,984.07
2023-05-12T01:11:47.890Z,984.05
2023-05-12T01:12:47.862Z,984.04
2023-05-12T01:13:47.849Z,984.02
2023-05-12T01:14:47.835Z,984.02
2023-05-12T01:15:47.844Z,984.03
2023-05-12T01:16:47.888Z,984.03
2023-05-12T01:17:47.933Z,984.03
2023-05-12T01:18:47.822Z,984.03
2023-05-12T01:19:47.798Z,984.02
2023-05-12T01:20:47.808Z,984.01
2023-05-12T01:21:47.776Z,983.99
2023-05-12T01:22:48.175Z,984.00
2023-05-12T01:23:47.744Z,983.99
2023-05-12T01:24:47.750Z,983.99
2023-05-12T01:25:47.717Z,983.99
2023-05-12T01:26:47.712Z,983.98
2023-05-12T01:27:47.722Z,983.98
2023-05-12T01:28:47.731Z,983.97
2023-05-12T01:29:47.699Z,984.00
2023-05-12T01:30:47.733Z,984.00
2023-05-12T01:31:47.797Z,984.01
2023-05-12T01:32:47.762Z,984.00
2023-05-12T01:33:47.679Z,984.01
2023-05-12T01:34:47.657Z,984.01
2023-05-12T01:35:47.645Z,984.02
2023-05-12T01:36:47.617Z,984.02
2023-05-12T01:37:50.352Z,984.02
2023-05-12T01:38:47.596Z,984.04
2023-05-12T01:39:47.580Z,984.05
2023-05-12T01:40:47.578Z,984.06
2023-05-12T01:41:47.596Z,984.07
2023-05-12T01:42:47.561Z,984.07
2023-05-12T01:43:47.552Z,984.08
2023-05-12T01:44:47.532Z,984.08
2023-05-12T01:45:47.527Z,984.07
2023-05-12T01:46:47.631Z,984.08
2023-05-12T01:47:47.547Z,984.10
2023-05-12T01:48:47.503Z,984.12
2023-05-12T01:49:47.504Z,984.12
2023-05-12T01:50:47.470Z,984.12
2023-05-12T01:51:47.479Z,984.11
2023-05-12T01:52:47.474Z,984.13
2023-05-12T01:53:47.438Z,984.12
2023-05-12T01:54:47.433Z,984.10
2023-05-12T01:55:47.428Z,984.09
2023-05-12T01:56:47.397Z,984.10
2023-05-12T01:57:47.396Z,984.11
2023-05-12T01:58:47.457Z,984.14
2023-05-12T01:59:47.394Z,984.19
2023-05-12T02:00:47.371Z,984.23
2023-05-12T02:01:47.428Z,984.25
2023-05-12T02:02:47.436Z,984.27
2023-05-12T02:03:47.427Z,984.29
2023-05-12T02:04:47.336Z,984.29
2023-05-12T02:05:47.319Z,984.29
2023-05-12T02:06:47.303Z,984.29
2023-05-12T02:07:47.310Z,984.28
2023-05-12T02:08:47.288Z,984.28
2023-05-12T02:09:47.303Z,984.28
2023-05-12T02:10:47.258Z,984.29
2023-05-12T02:11:47.262Z,984.30
2023-05-12T02:12:47.240Z,984.30
2023-05-12T02:13:47.258Z,984.30
2023-05-12T02:14:47.218Z,984.31
2023-05-12T02:15:47.233Z,984.31
2023-05-12T02:16:47.453Z,984.32
2023-05-12T02:17:47.229Z,984.31
2023-05-12T02:18:47.233Z,984.31
2023-05-12T02:19:47.169Z,984.32
2023-05-12T02:20:47.174Z,984.33
2023-05-12T02:21:47.176Z,984.35
2023-05-12T02:22:47.162Z,984.37
2023-05-12T02:23:47.161Z,984.36
2023-05-12T02:24:47.105Z,984.36
2023-05-12T02:25:47.116Z,984.35
2023-05-12T02:26:47.115Z,984.35
2023-05-12T02:27:47.117Z,984.35
2023-05-12T02:28:47.074Z,984.35
2023-05-12T02:29:47.082Z,984.34
2023-05-12T02:30:47.051Z,984.33
2023-05-12T02:31:47.081Z,984.31
2023-05-12T02:32:47.109Z,984.30
2023-05-12T02:33:47.041Z,984.30
2023-05-12T02:34:47.017Z,984.29
2023-05-12T02:35:47.001Z,984.29
2023-05-12T02:36:47.008Z,984.31
2023-05-12T02:37:46.985Z,984.32
2023-05-12T02:38:47.023Z,984.33
2023-05-12T02:39:46.965Z,984.35
2023-05-12T02:40:46.951Z,984.35
2023-05-12T02:41:46.945Z,984.34
2023-05-12T02:42:46.933Z,984.32
2023-05-12T02:43:46.938Z,984.30
2023-05-12T02:44:47.326Z,984.28
2023-05-12T02:45:46.928Z,984.26
2023-05-12T02:46:46.896Z,984.25
2023-05-12T02:47:46.932Z,984.24
2023-05-12T02:48:46.887Z,984.25
2023-05-12T02:49:46.867Z,984.24
2023-05-12T02:50:46.892Z,984.25
2023-05-12T02:51:46.847Z,984.27
2023-05-12T02:52:46.841Z,984.26
2023-05-12T02:53:46.837Z,984.26
2023-05-12T02:54:46.849Z,984.26
2023-05-12T02:55:46.821Z,984.26
2023-05-12T02:56:46.821Z,984.26
2023-05-12T02:57:46.794Z,984.25
2023-05-12T02:58:46.762Z,984.25
2023-05-12T02:59:46.783Z,984.26
2023-05-12T03:00:48.722Z,984.27
2023-05-12T03:01:46.776Z,984.27
2023-05-12T03:02:46.881Z,984.27
2023-05-12T03:03:46.978Z,984.26
2023-05-12T03:04:46.712Z,984.26
2023-05-12T03:05:46.720Z,984.28
2023-05-12T03:06:46.720Z,984.28
2023-05-12T03:07:46.684Z,984.28
2023-05-12T03:08:46.709Z,984.28
2023-05-12T03:09:46.676Z,984.27
2023-05-12T03:10:46.642Z,984.27
2023-05-12T03:11:46.651Z,984.26
2023-05-12T03:12:46.640Z,984.25
2023-05-12T03:13:46.669Z,984.24
2023-05-12T03:14:46.663Z,984.24
2023-05-12T03:15:46.611Z,984.24
2023-05-12T03:16:46.618Z,984.24
2023-05-12T03:17:46.622Z,984.24
2023-05-12T03:18:46.618Z,984.25
2023-05-12T03:19:46.555Z,984.24
2023-05-12T03:20:46.580Z,984.23
2023-05-12T03:21:46.553Z,984.24
2023-05-12T03:22:46.531Z,984.25
2023-05-12T03:23:46.508Z,984.25
2023-05-12T03:24:46.499Z,984.26
2023-05-12T03:25:46.492Z,984.28
2023-05-12T03:26:46.518Z,984.28
2023-05-12T03:27:46.483Z,984.29
2023-05-12T03:28:46.480Z,984.30
2023-05-12T03:29:46.473Z,984.29
2023-05-12T03:30:46.446Z,984.29
2023-05-12T03:31:46.578Z,984.30
2023-05-12T03:32:46.489Z,984.31
2023-05-12T03:33:46.424Z,984.30
2023-05-12T03:34:46.396Z,984.31
2023-05-12T03:35:46.410Z,984.30
2023-05-12T03:36:46.396Z,984.31
2023-05-12T03:37:46.388Z,984.30
2023-05-12T03:38:46.387Z,984.29
2023-05-12T03:39:46.358Z,984.29
2023-05-12T03:40:46.344Z,984.29
2023-05-12T03:41:46.349Z,984.28
2023-05-12T03:42:46.327Z,984.28
2023-05-12T03:43:46.324Z,984.29
2023-05-12T03:44:46.305Z,984.28
2023-05-12T03:45:46.284Z,984.27
2023-05-12T03:46:46.340Z,984.28
2023-05-12T03:47:46.314Z,984.27
2023-05-12T03:48:46.247Z,984.26
2023-05-12T03:49:46.283Z,984.24
2023-05-12T03:50:46.224Z,984.24
2023-05-12T03:51:46.239Z,984.24
2023-05-12T03:52:46.233Z,984.24
2023-05-12T03:53:46.256Z,984.24
2023-05-12T03:54:46.208Z,984.24
2023-05-12T03:55:46.245Z,984.23
2023-05-12T03:56:46.188Z,984.23
2023-05-12T03:57:46.183Z,984.22
2023-05-12T03:58:46.170Z,984.23
2023-05-12T03:59:46.144Z,984.23
2023-05-12T04:00:46.144Z,984.22
2023-05-12T04:01:46.223Z,984.22
2023-05-12T04:02:46.208Z,984.22
2023-05-12T04:03:46.223Z,984.20
2023-05-12T04:04:46.122Z,984.19
2023-05-12T04:05:46.099Z,984.20
2023-05-12T04:06:46.085Z,984.18
2023-05-12T04:07:46.105Z,984.19
2023-05-12T04:08:46.043Z,984.20
2023-05-12T04:09:46.046Z,984.20
2023-05-12T04:10:46.030Z,984.20
2023-05-12T04:11:46.039Z,984.21
2023-05-12T04:12:46.070Z,984.20
2023-05-12T04:13:46.046Z,984.21
2023-05-12T04:14:45.994Z,984.21
2023-05-12T04:15:45.993Z,984.22
2023-05-12T04:16:46.045Z,984.22
2023-05-12T04:17:46.036Z,984.21
2023-05-12T04:18:46.008Z,984.22
2023-05-12T04:19:45.996Z,984.22
2023-05-12T04:20:45.947Z,984.23
2023-05-12T04:21:45.947Z,984.22
2023-05-12T04:22:45.949Z,984.23
2023-05-12T04:23:45.907Z,984.24
2023-05-12T04:24:45.893Z,984.24
2023-05-12T04:25:46.171Z,984.25
2023-05-12T04:26:45.868Z,984.26
2023-05-12T04:27:45.869Z,984.27
2023-05-12T04:28:45.838Z,984.28
2023-05-12T04:29:45.840Z,984.29
2023-05-12T04:30:45.835Z,984.29
2023-05-12T04:31:45.956Z,984.31
2023-05-12T04:32:45.950Z,984.33
2023-05-12T04:33:48.118Z,984.34
2023-05-12T04:34:45.825Z,984.33
2023-05-12T04:35:45.778Z,984.32
2023-05-12T04:36:45.764Z,984.32
2023-05-12T04:37:46.180Z,984.32
2023-05-12T04:38:45.767Z,984.31
2023-05-12T04:39:45.790Z,984.32
2023-05-12T04:40:45.741Z,984.32
2023-05-12T04:41:45.730Z,984.35
2023-05-12T04:42:45.737Z,984.35
2023-05-12T04:44:45.705Z,984.36
2023-05-12T04:45:45.723Z,984.34
2023-05-12T04:46:45.693Z,984.27
2023-05-12T04:47:45.702Z,984.28
2023-05-12T04:48:45.649Z,984.31
2023-05-12T04:49:45.690Z,984.35
2023-05-12T04:50:45.623Z,984.34
2023-05-12T04:51:45.631Z,984.35
2023-05-12T04:52:45.598Z,984.36
2023-05-12T04:53:45.610Z,984.35
2023-05-12T04:54:45.595Z,984.34
2023-05-12T04:55:45.623Z,984.35
2023-05-12T04:56:45.583Z,984.35
2023-05-12T04:57:45.611Z,984.35
2023-05-12T04:58:45.564Z,984.35
2023-05-12T04:59:45.617Z,984.36
2023-05-12T05:00:45.575Z,984.35
2023-05-12T05:01:45.742Z,984.37
2023-05-12T05:02:45.627Z,984.38
2023-05-12T05:03:45.543Z,984.38
2023-05-12T05:04:45.480Z,984.39
2023-05-12T05:05:45.468Z,984.40
2023-05-12T05:06:45.465Z,984.41
2023-05-12T05:07:45.471Z,984.39
2023-05-12T05:08:45.459Z,984.39
2023-05-12T05:09:45.438Z,984.40
2023-05-12T05:10:45.419Z,984.40
2023-05-12T05:11:45.421Z,984.41
2023-05-12T05:12:45.447Z,984.42
2023-05-12T05:13:45.404Z,984.42
2023-05-12T05:14:45.415Z,984.43
2023-05-12T05:15:45.528Z,984.44
2023-05-12T05:16:45.398Z,984.45
2023-05-12T05:17:45.420Z,984.46
2023-05-12T05:18:45.450Z,984.48
2023-05-12T05:19:57.286Z,984.49
2023-05-12T05:20:45.793Z,984.49
2023-05-12T05:21:45.321Z,984.49
2023-05-12T05:22:45.304Z,984.50
2023-05-12T05:23:45.283Z,984.50
2023-05-12T05:24:45.307Z,984.49
2023-05-12T05:25:45.276Z,984.50
2023-05-12T05:26:45.275Z,984.49
2023-05-12T05:27:45.275Z,984.49
2023-05-12T05:28:45.267Z,984.50
2023-05-12T05:29:45.279Z,984.51
2023-05-12T05:30:45.235Z,984.52
2023-05-12T05:31:45.313Z,984.51
2023-05-12T05:32:45.248Z,984.52
2023-05-12T05:33:45.201Z,984.52
2023-05-12T05:34:45.200Z,984.52
2023-05-12T05:35:45.204Z,984.51
2023-05-12T05:36:45.158Z,984.49
2023-05-12T05:37:45.158Z,984.48
2023-05-12T05:38:45.132Z,984.50
2023-05-12T05:39:45.143Z,984.50
2023-05-12T05:40:52.267Z,984.49
2023-05-12T05:41:45.162Z,984.51
2023-05-12T05:42:45.113Z,984.53
2023-05-12T05:43:45.083Z,984.54
2023-05-12T05:44:45.090Z,984.54
2023-05-12T05:45:45.074Z,984.55
2023-05-12T05:46:45.154Z,984.56
2023-05-12T05:47:45.632Z,984.59
2023-05-12T05:48:45.035Z,984.60
2023-05-12T05:49:45.018Z,984.61
2023-05-12T05:50:45.022Z,984.62
2023-05-12T05:51:45.082Z,984.62
2023-05-12T05:52:45.033Z,984.63
2023-05-12T05:53:45.031Z,984.64
2023-05-12T05:54:44.996Z,984.65
2023-05-12T05:55:44.987Z,984.66
2023-05-12T05:56:44.967Z,984.65
2023-05-12T05:57:44.946Z,984.65
2023-05-12T05:58:44.955Z,984.63
2023-05-12T05:59:44.938Z,984.65
2023-05-12T06:00:44.951Z,984.65
2023-05-12T06:01:44.922Z,984.66
2023-05-12T06:02:45.132Z,984.69
2023-05-12T06:03:45.046Z,984.70
2023-05-12T06:04:44.876Z,984.71
2023-05-12T06:05:44.898Z,984.72
2023-05-12T06:06:44.866Z,984.72
2023-05-12T06:07:44.862Z,984.71
2023-05-12T06:08:44.835Z,984.70
2023-05-12T06:09:44.838Z,984.68
2023-05-12T06:10:44.820Z,984.68
2023-05-12T06:11:44.834Z,984.67
2023-05-12T06:12:44.784Z,984.65
2023-05-12T06:13:44.784Z,984.66
2023-05-12T06:14:44.776Z,984.67
2023-05-12T06:15:44.769Z,984.68
2023-05-12T06:16:44.791Z,984.67
2023-05-12T06:17:44.819Z,984.67
2023-05-12T06:18:44.792Z,984.68
2023-05-12T06:19:44.727Z,984.68
2023-05-12T06:20:44.734Z,984.68
2023-05-12T06:21:44.729Z,984.69
2023-05-12T06:22:44.700Z,984.69
2023-05-12T06:23:44.697Z,984.71
2023-05-12T06:24:44.661Z,984.70
2023-05-12T06:25:44.666Z,984.71
2023-05-12T06:26:44.659Z,984.70
2023-05-12T06:27:44.642Z,984.68
2023-05-12T06:28:44.619Z,984.65
2023-05-12T06:29:44.662Z,984.68
2023-05-12T06:30:44.631Z,984.70
2023-05-12T06:31:44.651Z,984.70
2023-05-12T06:32:44.666Z,984.71
2023-05-12T06:33:44.575Z,984.73
2023-05-12T06:34:44.590Z,984.74
2023-05-12T06:35:44.597Z,984.75
2023-05-12T06:36:44.568Z,984.75
2023-05-12T06:37:44.553Z,984.75
2023-05-12T06:38:44.539Z,984.74
2023-05-12T06:39:44.537Z,984.75
2023-05-12T06:40:44.517Z,984.76
2023-05-12T06:41:44.522Z,984.77
2023-05-12T06:42:44.494Z,984.78
2023-05-12T06:43:44.483Z,984.78
2023-05-12T06:44:44.483Z,984.78
2023-05-12T06:45:44.489Z,984.79
2023-05-12T06:46:44.529Z,984.78
2023-05-12T06:47:44.521Z,984.78
2023-05-12T06:48:44.425Z,984.77
2023-05-12T06:49:44.461Z,984.78
2023-05-12T06:50:44.456Z,984.78
2023-05-12T06:51:44.405Z,984.77
2023-05-12T06:52:44.399Z,984.79
2023-05-12T06:53:44.377Z,984.80
2023-05-12T06:54:44.371Z,984.78
2023-05-12T06:55:44.842Z,984.78
2023-05-12T06:56:44.366Z,984.77
2023-05-12T06:57:44.344Z,984.78
2023-05-12T06:58:44.334Z,984.79
2023-05-12T06:59:44.325Z,984.79
2023-05-12T07:00:44.311Z,984.80
2023-05-12T07:01:44.395Z,984.80
2023-05-12T07:02:44.331Z,984.80
2023-05-12T07:03:44.291Z,984.80
2023-05-12T07:04:44.292Z,984.79
2023-05-12T07:05:44.321Z,984.79
2023-05-12T07:06:44.253Z,984.78
2023-05-12T07:07:44.248Z,984.77
2023-05-12T07:08:44.219Z,984.78
2023-05-12T07:09:44.203Z,984.79
2023-05-12T07:10:44.204Z,984.79
2023-05-12T07:11:44.191Z,984.79
2023-05-12T07:12:44.232Z,984.79
2023-05-12T07:13:44.177Z,984.80
2023-05-12T07:14:44.168Z,984.81
2023-05-12T07:15:44.180Z,984.83
2023-05-12T07:16:44.156Z,984.84
2023-05-12T07:17:44.146Z,984.85
2023-05-12T07:18:44.217Z,984.85
2023-05-12T07:19:44.135Z,984.86
2023-05-12T07:20:44.102Z,984.85
2023-05-12T07:21:44.108Z,984.86
2023-05-12T07:22:44.106Z,984.85
2023-05-12T07:23:44.080Z,984.85
2023-05-12T07:24:44.607Z,984.85
2023-05-12T07:25:44.153Z,984.85
2023-05-12T07:26:44.050Z,984.86
2023-05-12T07:27:44.015Z,984.84
2023-05-12T07:28:44.040Z,984.84
2023-05-12T07:29:43.996Z,984.85
2023-05-12T07:30:44.048Z,984.86
2023-05-12T07:31:44.051Z,984.85
2023-05-12T07:32:44.030Z,984.85
2023-05-12T07:33:43.970Z,984.86
2023-05-12T07:34:43.985Z,984.86
2023-05-12T07:35:43.962Z,984.87
2023-05-12T07:36:43.978Z,984.86
2023-05-12T07:37:43.932Z,984.85
2023-05-12T07:38:43.931Z,984.86
2023-05-12T07:39:43.920Z,984.87
2023-05-12T07:40:43.895Z,984.87
2023-05-12T07:41:43.892Z,984.87
2023-05-12T07:42:43.919Z,984.87
2023-05-12T07:43:43.860Z,984.88
2023-05-12T07:44:43.859Z,984.89
2023-05-12T07:45:43.843Z,984.89
2023-05-12T07:46:43.883Z,984.90
2023-05-12T07:47:43.869Z,984.91
2023-05-12T07:48:43.829Z,984.93
2023-05-12T07:49:43.840Z,984.89
2023-05-12T07:50:43.802Z,984.90
2023-05-12T07:51:43.790Z,984.92
2023-05-12T07:52:43.771Z,984.92
2023-05-12T07:53:43.763Z,984.92
2023-05-12T07:54:43.755Z,984.91
2023-05-12T07:55:43.767Z,984.91
2023-05-12T07:56:43.744Z,984.93
2023-05-12T07:57:43.749Z,984.90
2023-05-12T07:58:45.318Z,984.95
2023-05-12T07:59:43.694Z,984.96
2023-05-12T08:00:43.919Z,984.98
2023-05-12T08:01:43.708Z,984.99
2023-05-12T08:02:43.772Z,985.01
2023-05-12T08:03:43.711Z,985.02
2023-05-12T08:04:44.489Z,985.03
2023-05-12T08:05:43.632Z,985.02
2023-05-12T08:06:43.640Z,985.03
2023-05-12T08:07:43.699Z,985.03
2023-05-12T08:08:43.613Z,985.02
2023-05-12T08:09:43.603Z,985.03
2023-05-12T08:10:43.589Z,985.04
2023-05-12T08:11:46.567Z,985.03
2023-05-12T08:12:43.598Z,985.03
2023-05-12T08:13:43.578Z,985.00
2023-05-12T08:14:43.561Z,984.99
2023-05-12T08:15:43.583Z,984.99
2023-05-12T08:16:43.585Z,985.00
2023-05-12T08:17:43.582Z,984.99
2023-05-12T08:18:43.540Z,984.98
2023-05-12T08:19:43.487Z,984.97
2023-05-12T08:20:43.541Z,984.97
2023-05-12T08:21:43.462Z,984.96
2023-05-12T08:22:43.473Z,984.95
2023-05-12T08:23:43.512Z,984.96
2023-05-12T08:24:43.472Z,984.95
2023-05-12T08:25:43.441Z,984.94
2023-05-12T08:26:43.449Z,984.95
2023-05-12T08:27:43.438Z,984.92
2023-05-12T08:28:43.425Z,984.92
2023-05-12T08:29:43.891Z,984.95
2023-05-12T08:30:43.440Z,984.97
2023-05-12T08:31:43.428Z,984.97
2023-05-12T08:32:43.411Z,984.95
2023-05-12T08:33:43.339Z,984.95
2023-05-12T08:34:43.346Z,984.97
2023-05-12T08:35:43.371Z,984.98
2023-05-12T08:36:43.320Z,984.99
2023-05-12T08:37:43.323Z,985.01
2023-05-12T08:38:43.306Z,984.97
2023-05-12T08:39:43.295Z,984.97
2023-05-12T08:40:43.297Z,985.01
2023-05-12T08:41:43.423Z,985.00
2023-05-12T08:42:43.281Z,985.01
2023-05-12T08:43:43.267Z,985.02
2023-05-12T08:44:43.255Z,985.01
2023-05-12T08:45:43.230Z,985.00
2023-05-12T08:46:43.337Z,985.01
2023-05-12T08:47:43.456Z,985.03
2023-05-12T08:48:43.192Z,984.98
2023-05-12T08:49:43.179Z,985.00
2023-05-12T08:50:43.176Z,985.00
2023-05-12T08:51:43.183Z,985.00
2023-05-12T08:52:43.195Z,985.04
2023-05-12T08:53:43.185Z,985.03
2023-05-12T08:54:55.110Z,985.02
2023-05-12T08:55:50.217Z,985.06
2023-05-12T08:57:43.104Z,985.05
2023-05-12T08:58:43.110Z,985.06
2023-05-12T08:59:43.114Z,985.04
2023-05-12T09:00:43.119Z,985.07
2023-05-12T09:01:43.158Z,985.07
2023-05-12T09:02:53.005Z,985.07
2023-05-12T09:03:43.111Z,985.08
2023-05-12T09:04:43.098Z,985.08
2023-05-12T09:05:43.059Z,985.09
2023-05-12T09:06:43.031Z,985.08
2023-05-12T09:07:43.026Z,985.11
2023-05-12T09:08:43.039Z,985.10
2023-05-12T09:09:43.008Z,985.11
2023-05-12T09:10:42.996Z,985.12
2023-05-12T09:11:42.949Z,985.14
2023-05-12T09:12:42.947Z,985.14
2023-05-12T09:13:42.935Z,985.16
2023-05-12T09:14:42.951Z,985.13
2023-05-12T09:15:42.926Z,985.12
2023-05-12T09:16:42.998Z,985.14
2023-05-12T09:17:42.925Z,985.16
2023-05-12T09:18:42.918Z,985.15
2023-05-12T09:19:42.893Z,985.15
2023-05-12T09:20:42.921Z,985.13
2023-05-12T09:21:42.880Z,985.17
2023-05-12T09:22:42.847Z,985.15
2023-05-12T09:23:42.868Z,985.13
2023-05-12T09:24:42.827Z,985.12
2023-05-12T09:25:42.896Z,985.12
2023-05-12T09:26:42.820Z,985.14
2023-05-12T09:27:42.802Z,985.13
2023-05-12T09:28:42.803Z,985.13
2023-05-12T09:29:55.271Z,985.15
2023-05-12T09:30:42.924Z,985.16
2023-05-12T09:31:42.810Z,985.13
2023-05-12T09:32:42.785Z,985.15
2023-05-12T09:33:42.744Z,985.12
2023-05-12T09:34:42.715Z,985.19
2023-05-12T09:35:42.784Z,985.14
2023-05-12T09:36:42.706Z,985.15
2023-05-12T09:37:42.729Z,985.08
2023-05-12T09:38:42.689Z,985.10
2023-05-12T09:39:42.689Z,985.14
2023-05-12T09:40:42.690Z,985.09
2023-05-12T09:41:42.721Z,985.10
2023-05-12T09:42:42.663Z,985.12
2023-05-12T09:43:42.641Z,985.13
2023-05-12T09:44:43.417Z,985.12
2023-05-12T09:45:42.658Z,985.12
2023-05-12T09:46:42.617Z,985.13
2023-05-12T09:47:42.603Z,985.11
2023-05-12T09:48:42.865Z,985.09
2023-05-12T09:49:42.566Z,985.11
2023-05-12T09:50:47.308Z,985.11
2023-05-12T09:51:42.577Z,985.14
2023-05-12T09:52:42.539Z,985.12
2023-05-12T09:53:42.545Z,985.14
2023-05-12T09:54:42.547Z,985.14
2023-05-12T09:55:42.510Z,985.15
2023-05-12T09:56:42.502Z,985.16
2023-05-12T09:57:42.498Z,985.14
2023-05-12T09:58:42.467Z,985.13
2023-05-12T09:59:43.794Z,985.13
2023-05-12T10:01:02.366Z,985.11
2023-05-12T10:01:42.501Z,985.13
2023-05-12T10:02:42.464Z,985.11
2023-05-12T10:03:42.451Z,985.08
2023-05-12T10:04:42.449Z,985.10
2023-05-12T10:05:42.412Z,985.09
2023-05-12T10:06:42.455Z,985.08
2023-05-12T10:07:42.387Z,985.07
2023-05-12T10:08:42.358Z,985.08
2023-05-12T10:09:42.454Z,985.05
2023-05-12T10:10:42.342Z,985.04
2023-05-12T10:11:42.348Z,985.02
2023-05-12T10:12:42.373Z,985.06
2023-05-12T10:13:43.294Z,985.03
2023-05-12T10:14:42.336Z,985.01
2023-05-12T10:15:42.306Z,985.11
2023-05-12T10:16:42.308Z,985.08
2023-05-12T10:17:42.297Z,985.10
2023-05-12T10:18:42.365Z,985.08
2023-05-12T10:19:42.288Z,985.08
2023-05-12T10:20:42.260Z,985.05
2023-05-12T10:21:42.276Z,985.03
2023-05-12T10:22:42.232Z,985.03
2023-05-12T10:23:42.216Z,985.00
2023-05-12T10:24:42.213Z,984.97
2023-05-12T10:25:42.194Z,985.00
2023-05-12T10:26:42.172Z,985.00
2023-05-12T10:27:42.203Z,985.03
2023-05-12T10:28:42.169Z,985.02
2023-05-12T10:29:42.172Z,984.99
2023-05-12T10:30:42.183Z,985.00
2023-05-12T10:31:42.151Z,984.97
2023-05-12T10:32:42.122Z,985.00
2023-05-12T10:33:42.122Z,985.00
2023-05-12T10:34:42.135Z,984.99
2023-05-12T10:35:42.086Z,985.01
2023-05-12T10:36:42.107Z,985.05
2023-05-12T10:37:42.065Z,985.03
2023-05-12T10:38:42.048Z,985.03
2023-05-12T10:39:42.078Z,984.99
2023-05-12T10:40:42.057Z,985.00
2023-05-12T10:41:42.057Z,985.04
2023-05-12T10:42:42.051Z,985.01
2023-05-12T10:43:42.040Z,985.02
2023-05-12T10:44:42.013Z,985.03
2023-05-12T10:45:41.997Z,985.01
2023-05-12T10:46:42.064Z,985.02
2023-05-12T10:47:42.010Z,985.03
2023-05-12T10:48:41.983Z,985.04
2023-05-12T10:49:42.028Z,985.01
2023-05-12T10:50:41.938Z,985.01
2023-05-12T10:51:41.929Z,985.01
2023-05-12T10:52:41.912Z,984.99
2023-05-12T10:53:50.078Z,985.01
2023-05-12T10:54:42.385Z,984.99
2023-05-12T10:55:42.219Z,985.00
2023-05-12T10:56:42.136Z,985.03
2023-05-12T10:57:42.243Z,985.01
2023-05-12T10:58:42.138Z,985.03
2023-05-12T10:59:42.358Z,985.02
2023-05-12T11:00:42.341Z,985.02
2023-05-12T11:01:42.936Z,985.02
2023-05-12T11:02:42.744Z,985.06
2023-05-12T11:03:42.464Z,985.07
2023-05-12T11:04:42.021Z,985.05
2023-05-12T11:05:42.468Z,985.06
2023-05-12T11:06:42.926Z,985.04
2023-05-12T11:07:42.132Z,985.02
2023-05-12T11:08:42.454Z,985.03
2023-05-12T11:09:50.633Z,985.03
2023-05-12T11:10:41.870Z,985.02
2023-05-12T11:11:41.809Z,985.01
2023-05-12T11:12:41.828Z,985.04
2023-05-12T11:13:41.710Z,985.03
2023-05-12T11:14:41.691Z,985.04
2023-05-12T11:15:41.689Z,985.04
2023-05-12T11:16:41.817Z,985.02
2023-05-12T11:17:41.756Z,985.00
2023-05-12T11:18:41.704Z,984.96
2023-05-12T11:19:41.657Z,984.98
2023-05-12T11:20:41.646Z,984.97
2023-05-12T11:21:41.643Z,984.99
2023-05-12T11:22:41.624Z,984.99
2023-05-12T11:23:41.604Z,984.98
2023-05-12T11:24:41.626Z,984.99
2023-05-12T11:25:43.556Z,985.02
2023-05-12T11:26:41.653Z,984.99
2023-05-12T11:27:41.558Z,985.00
2023-05-12T11:28:41.538Z,985.03
2023-05-12T11:29:41.685Z,985.02
2023-05-12T11:30:41.545Z,985.03
2023-05-12T11:31:41.683Z,985.00
2023-05-12T11:32:41.593Z,985.07
2023-05-12T11:33:41.519Z,985.05
2023-05-12T11:34:41.500Z,985.02
2023-05-12T11:35:41.491Z,985.02
2023-05-12T11:36:41.458Z,985.01
2023-05-12T11:37:41.513Z,985.10
2023-05-12T11:38:41.437Z,985.07
2023-05-12T11:39:41.441Z,985.10
2023-05-12T11:40:41.432Z,985.09
2023-05-12T11:41:41.479Z,985.09
2023-05-12T11:42:41.455Z,985.09
2023-05-12T11:43:41.413Z,985.10
2023-05-12T11:44:41.433Z,985.10
2023-05-12T11:45:41.412Z,985.08
2023-05-12T11:46:41.372Z,985.11
2023-05-12T11:47:41.398Z,985.07
2023-05-12T11:48:41.401Z,985.12
2023-05-12T11:49:41.366Z,985.11
2023-05-12T11:50:41.438Z,985.08
2023-05-12T11:51:41.322Z,985.05
2023-05-12T11:52:41.309Z,985.01
2023-05-12T11:53:41.319Z,985.04
2023-05-12T11:54:41.322Z,985.03
2023-05-12T11:55:41.288Z,984.99
2023-05-12T11:56:41.256Z,984.98
2023-05-12T11:57:41.258Z,985.01
2023-05-12T11:58:41.242Z,984.99
2023-05-12T11:59:41.263Z,985.00
2023-05-12T12:00:41.434Z,985.05
2023-05-12T12:01:41.239Z,984.98
2023-05-12T12:02:41.327Z,984.93
2023-05-12T12:03:41.295Z,984.94
2023-05-12T12:04:41.300Z,984.96
2023-05-12T12:05:41.193Z,984.98
2023-05-12T12:06:41.220Z,985.02
2023-05-12T12:07:41.173Z,985.00
2023-05-12T12:08:41.158Z,984.98
2023-05-12T12:09:41.151Z,984.98
2023-05-12T12:10:41.131Z,984.97
2023-05-12T12:11:41.963Z,984.99
2023-05-12T12:12:41.122Z,984.92
2023-05-12T12:13:41.112Z,984.89
2023-05-12T12:14:41.098Z,984.90
2023-05-12T12:15:41.121Z,984.91
2023-05-12T12:16:41.079Z,984.84
2023-05-12T12:17:41.181Z,984.85
2023-05-12T12:18:41.102Z,984.87
2023-05-12T12:19:41.048Z,984.91
2023-05-12T12:20:41.027Z,984.94
2023-05-12T12:21:41.045Z,984.92
2023-05-12T12:22:41.012Z,984.90
2023-05-12T12:23:50.314Z,984.87
2023-05-12T12:24:40.992Z,984.89
2023-05-12T12:25:40.985Z,984.93
2023-05-12T12:26:40.976Z,984.89
2023-05-12T12:27:40.981Z,984.90
2023-05-12T12:28:40.950Z,984.93
2023-05-12T12:29:40.966Z,984.96
2023-05-12T12:30:40.925Z,984.95